Time;durP1;ratioP1;P1;durP2;ratioP2;P2;SDS_P1;SDS_P2;PMS_P1;PMS_P2;Temp;Humidity;BMP_temperature;BMP_pressure;BME280_temperature;BME280_humidity;BME280_pressure;Samples;Min_cycle;Max_cycle;Signal;HPM_P1;HPM_P2
2023/12/02 00:00:17;;;;;;;74.70;39.70;;;;;;;-147.86;100.00;46166.86;105617;1257;65738;-44
2023/12/02 00:03:10;;;;;;;74.80;37.70;;;;;;;-147.86;100.00;46168.03;105583;1257;72811;-45
2023/12/02 00:05:39;;;;;;;72.80;38.00;;;;;;;-147.86;100.00;46163.72;105619;1257;60950;-45
2023/12/02 00:08:06;;;;;;;64.00;35.20;;;;;;;-147.86;100.00;46165.29;105647;1257;60045;-44
2023/12/02 00:10:34;;;;;;;58.30;32.70;;;;;;;-147.86;100.00;46166.07;105611;1260;72810;-45
2023/12/02 00:13:01;;;;;;;65.30;35.90;;;;;;;-147.86;100.00;46164.90;105627;1261;65368;-45
2023/12/02 00:15:29;;;;;;;66.30;35.60;;;;;;;-147.86;100.00;46165.29;105656;1257;72641;-45
2023/12/02 00:17:58;;;;;;;66.10;36.70;;;;;;;-147.86;100.00;46165.68;105579;1260;60998;-45
2023/12/02 00:20:28;;;;;;;66.00;36.10;;;;;;;-147.86;100.00;46165.29;105597;1257;60188;-44
2023/12/02 00:22:55;;;;;;;65.60;36.90;;;;;;;-147.86;100.00;46165.29;105605;1260;72865;-45
2023/12/02 00:25:22;;;;;;;59.10;34.60;;;;;;;-147.86;100.00;46162.94;105651;1257;65390;-44
2023/12/02 00:27:49;;;;;;;63.20;34.40;;;;;;;-147.86;100.00;46164.50;105646;1259;72559;-46
2023/12/02 00:30:17;;;;;;;65.50;36.50;;;;;;;-147.86;100.00;46162.16;105669;1256;59729;-45
2023/12/02 00:32:45;;;;;;;68.30;35.60;;;;;;;-147.86;100.00;46164.50;105626;1259;60155;-44
2023/12/02 00:35:12;;;;;;;64.90;33.40;;;;;;;-147.86;100.00;46164.51;105634;1258;73059;-45
2023/12/02 00:37:39;;;;;;;62.00;35.40;;;;;;;-147.86;100.00;46167.64;105610;1260;65518;-45
2023/12/02 00:40:12;;;;;;;61.20;34.30;;;;;;;-147.86;100.00;46166.46;105616;1256;72423;-44
2023/12/02 00:42:43;;;;;;;49.50;27.40;;;;;;;-147.86;100.00;46166.46;105576;1263;59708;-45
2023/12/02 00:45:11;;;;;;;63.30;34.70;;;;;;;-147.86;100.00;46162.15;105647;1258;60262;-45
2023/12/02 00:47:40;;;;;;;61.50;34.50;;;;;;;-147.86;100.00;46166.86;105642;1260;73101;-44
2023/12/02 00:50:10;;;;;;;64.00;35.00;;;;;;;-147.86;100.00;46164.90;105631;1260;65538;-45
2023/12/02 00:52:45;;;;;;;61.70;34.10;;;;;;;-147.86;100.00;46165.68;105608;1258;72708;-45
2023/12/02 00:55:12;;;;;;;64.90;36.00;;;;;;;-147.86;100.00;46164.51;105696;1260;61200;-45
2023/12/02 00:57:43;;;;;;;64.00;35.40;;;;;;;-147.86;100.00;46165.29;105603;1260;60300;-45
2023/12/02 01:00:13;;;;;;;67.30;34.10;;;;;;;-147.86;100.00;46165.29;105623;1257;71603;-45
2023/12/02 01:02:47;;;;;;;57.60;33.20;;;;;;;-147.86;100.00;46164.11;105630;1260;64691;-45
2023/12/02 01:05:17;;;;;;;63.20;33.80;;;;;;;-147.86;100.00;46163.33;105632;1256;73160;-45
2023/12/02 01:07:53;;;;;;;59.70;32.70;;;;;;;-147.86;100.00;46164.11;105625;1259;61221;-44
2023/12/02 01:10:20;;;;;;;56.10;31.70;;;;;;;-147.86;100.00;46166.07;105641;1258;60012;-46
2023/12/02 01:12:47;;;;;;;62.50;34.90;;;;;;;-147.86;100.00;46164.11;105646;1261;73181;-45
2023/12/02 01:15:20;;;;;;;59.10;31.80;;;;;;;-147.86;100.00;46164.90;105666;1258;65432;-44
2023/12/02 01:17:49;;;;;;;61.80;34.00;;;;;;;-147.86;100.00;46167.25;105608;1257;72527;-45
2023/12/02 01:20:18;;;;;;;58.10;33.20;;;;;;;-147.86;100.00;46164.90;105590;1260;60901;-44
2023/12/02 01:22:48;;;;;;;58.10;31.80;;;;;;;-147.86;100.00;46165.68;105605;1257;60002;-44
2023/12/02 01:25:15;;;;;;;61.50;33.40;;;;;;;-147.86;100.00;46164.90;105658;1261;73119;-44
2023/12/02 01:27:41;;;;;;;55.00;31.30;;;;;;;-147.86;100.00;46164.51;105602;1260;65372;-45
2023/12/02 01:30:10;;;;;;;57.00;33.50;;;;;;;-147.86;100.00;46163.33;105576;1256;72743;-44
2023/12/02 01:32:37;;;;;;;56.80;32.60;;;;;;;-147.86;100.00;46164.50;105651;1260;60534;-44
2023/12/02 01:35:05;;;;;;;60.50;31.30;;;;;;;-147.86;100.00;46165.29;105610;1260;60341;-45
2023/12/02 01:37:34;;;;;;;51.70;30.80;;;;;;;-147.86;100.00;46160.20;105628;1256;73792;-44
2023/12/02 01:40:01;;;;;;;54.30;30.70;;;;;;;-147.86;100.00;46159.41;105660;1260;65391;-44
2023/12/02 01:42:28;;;;;;;55.50;31.60;;;;;;;-147.86;100.00;46162.55;105597;1258;72728;-44
2023/12/02 01:44:58;;;;;;;52.80;29.70;;;;;;;-147.86;100.00;46158.23;105633;1257;60987;-44
2023/12/02 01:47:25;;;;;;;55.40;30.20;;;;;;;-147.86;100.00;46158.24;105664;1256;60338;-44
2023/12/02 01:49:54;;;;;;;54.00;29.00;;;;;;;-147.86;100.00;46159.41;105621;1259;73722;-44
2023/12/02 01:52:23;;;;;;;49.00;29.40;;;;;;;-147.86;100.00;46159.80;105646;1257;65520;-44
2023/12/02 01:54:50;;;;;;;59.30;31.40;;;;;;;-147.86;100.00;46157.45;105621;1257;72672;-44
2023/12/02 01:57:17;;;;;;;52.50;30.30;;;;;;;-147.86;100.00;46155.10;105615;1257;61026;-44
2023/12/02 01:59:45;;;;;;;54.30;30.10;;;;;;;-147.86;100.00;46162.55;105552;1257;60415;-45
2023/12/02 02:02:13;;;;;;;54.60;30.20;;;;;;;-147.86;100.00;46160.20;105544;1257;73708;-45
2023/12/02 02:04:40;;;;;;;56.60;30.30;;;;;;;-147.86;100.00;46158.24;105590;1260;65375;-44
2023/12/02 02:07:07;;;;;;;53.30;29.00;;;;;;;-147.86;100.00;46158.63;105644;1257;72619;-46
2023/12/02 02:09:34;;;;;;;51.10;29.10;;;;;;;-147.86;100.00;46157.84;105601;1259;61202;-44
2023/12/02 02:12:01;;;;;;;51.00;29.20;;;;;;;-147.86;100.00;46157.45;105647;1257;60447;-45
2023/12/02 02:14:28;;;;;;;52.30;28.30;;;;;;;-147.86;100.00;46156.66;105659;1260;73872;-45
2023/12/02 02:16:57;;;;;;;50.70;28.40;;;;;;;-147.86;100.00;46157.05;105647;1259;64254;-44
2023/12/02 02:19:24;;;;;;;47.70;28.60;;;;;;;-147.86;100.00;46156.27;105572;1258;73130;-45
2023/12/02 02:21:56;;;;;;;47.40;27.50;;;;;;;-147.86;100.00;46157.84;105643;1260;60412;-45
2023/12/02 02:24:23;;;;;;;54.90;27.90;;;;;;;-147.86;100.00;46157.84;105688;1256;60399;-45
2023/12/02 02:26:50;;;;;;;52.70;28.80;;;;;;;-147.86;100.00;46158.23;105630;1259;73754;-44
2023/12/02 02:29:17;;;;;;;48.40;27.30;;;;;;;-147.86;100.00;46154.71;105619;1257;65613;-44
2023/12/02 02:31:44;;;;;;;50.80;28.00;;;;;;;-147.86;100.00;46155.49;105572;1258;71396;-44
2023/12/02 02:34:14;;;;;;;47.00;26.80;;;;;;;-147.86;100.00;46156.66;105669;1256;60395;-44
2023/12/02 02:36:41;;;;;;;52.00;29.60;;;;;;;-147.86;100.00;46153.53;105625;1258;60457;-44
2023/12/02 02:39:09;;;;;;;47.60;27.50;;;;;;;-147.86;100.00;46158.63;105601;1259;72702;-45
2023/12/02 02:41:36;;;;;;;51.10;29.80;;;;;;;-147.86;100.00;46155.88;105677;1259;65863;-44
2023/12/02 02:44:07;;;;;;;48.30;27.20;;;;;;;-147.86;100.00;46157.84;105619;1257;72498;-45
2023/12/02 02:46:36;;;;;;;48.20;26.90;;;;;;;-147.86;100.00;46155.88;105606;1260;61188;-44
2023/12/02 02:49:05;;;;;;;51.20;29.10;;;;;;;-147.86;100.00;46158.23;105629;1257;60419;-44
2023/12/02 02:51:32;;;;;;;49.20;27.90;;;;;;;-147.86;100.00;46157.84;105680;1259;72847;-44
2023/12/02 02:53:59;;;;;;;51.70;28.50;;;;;;;-147.86;100.00;46153.53;105587;1260;65450;-45
2023/12/02 02:56:29;;;;;;;49.20;27.60;;;;;;;-147.86;100.00;46156.27;105659;1257;72595;-44
2023/12/02 02:58:59;;;;;;;56.80;29.30;;;;;;;-147.86;100.00;46157.45;105610;1257;60958;-45
2023/12/02 03:01:29;;;;;;;50.10;27.70;;;;;;;-147.86;100.00;46155.10;105665;1257;60560;-44
2023/12/02 03:03:55;;;;;;;52.10;28.40;;;;;;;-147.86;100.00;46154.71;105630;1260;72839;-45
2023/12/02 03:06:22;;;;;;;52.40;30.10;;;;;;;-147.86;100.00;46152.75;105629;1260;65478;-44
2023/12/02 03:08:52;;;;;;;51.00;29.10;;;;;;;-147.86;100.00;46153.14;105516;1257;70551;-45
2023/12/02 03:11:19;;;;;;;50.90;28.70;;;;;;;-147.86;100.00;46153.53;105655;1256;61114;-44
2023/12/02 03:13:51;;;;;;;50.90;28.50;;;;;;;-147.86;100.00;46153.93;105624;1259;60798;-44
2023/12/02 03:16:18;;;;;;;47.60;28.40;;;;;;;-147.86;100.00;46154.70;105680;1257;73919;-44
2023/12/02 03:18:44;;;;;;;56.30;29.80;;;;;;;-147.86;100.00;46155.10;105641;1259;65980;-44
2023/12/02 03:21:11;;;;;;;51.10;28.40;;;;;;;-147.86;100.00;46153.53;105604;1257;72603;-44
2023/12/02 03:23:38;;;;;;;51.70;26.40;;;;;;;-147.86;100.00;46151.18;105594;1259;61160;-44
2023/12/02 03:26:12;;;;;;;46.10;26.10;;;;;;;-147.86;100.00;46150.40;105657;1257;60402;-44
2023/12/02 03:28:39;;;;;;;47.10;26.50;;;;;;;-147.86;100.00;46152.36;105667;1259;73868;-46
2023/12/02 03:31:09;;;;;;;43.50;25.00;;;;;;;-147.86;100.00;46148.83;105639;1259;65359;-45
2023/12/02 03:33:36;;;;;;;46.30;26.30;;;;;;;-147.86;100.00;46150.40;105641;1257;72665;-44
2023/12/02 03:36:03;;;;;;;46.80;26.10;;;;;;;-147.86;100.00;46151.57;105613;1259;60626;-44
2023/12/02 03:38:30;;;;;;;42.90;24.40;;;;;;;-147.86;100.00;46151.57;105624;1257;60431;-45
2023/12/02 03:41:02;;;;;;;41.50;23.60;;;;;;;-147.86;100.00;46151.18;105621;1255;73612;-45
2023/12/02 03:43:29;;;;;;;45.70;23.60;;;;;;;-147.86;100.00;46150.79;105627;1259;64471;-45
2023/12/02 03:45:56;;;;;;;44.80;25.10;;;;;;;-147.86;100.00;46150.79;105640;1257;73193;-47
2023/12/02 03:48:23;;;;;;;46.30;24.80;;;;;;;-147.86;100.00;46148.83;105672;1260;60431;-45
2023/12/02 03:50:54;;;;;;;45.90;25.00;;;;;;;-147.86;100.00;46149.22;105718;1257;60457;-47
2023/12/02 03:53:25;;;;;;;42.60;25.10;;;;;;;-147.86;100.00;46152.36;105647;1256;73803;-46
2023/12/02 03:55:53;;;;;;;37.00;23.80;;;;;;;-147.86;100.00;46148.83;105529;1257;65425;-46
2023/12/02 03:58:20;;;;;;;43.70;25.50;;;;;;;-147.86;100.00;46148.83;105684;1257;72630;-45
2023/12/02 04:00:47;;;;;;;40.30;22.70;;;;;;;-147.86;100.00;46150.40;105649;1260;61612;-45
2023/12/02 04:03:19;;;;;;;39.70;23.40;;;;;;;-147.86;100.00;46148.83;105660;1257;60339;-47
2023/12/02 04:05:47;;;;;;;44.70;24.00;;;;;;;-147.86;100.00;46149.61;105616;1257;72584;-47
2023/12/02 04:08:14;;;;;;;44.00;23.80;;;;;;;-147.86;100.00;46149.61;105634;1259;65344;-45
2023/12/02 04:10:56;;;;;;;42.00;25.70;;;;;;;-147.86;100.00;46146.87;105569;1259;72350;-46
2023/12/02 04:13:24;;;;;;;44.30;25.50;;;;;;;-147.86;100.00;46152.75;105631;1260;60321;-45
2023/12/02 04:15:51;;;;;;;46.90;24.90;;;;;;;-147.86;100.00;46150.01;105661;1256;60540;-44
2023/12/02 04:18:25;;;;;;;43.00;24.60;;;;;;;-147.86;100.00;46148.83;105624;1260;73744;-45
2023/12/02 04:20:55;;;;;;;49.10;27.90;;;;;;;-147.86;100.00;46150.40;105628;1257;65508;-45
2023/12/02 04:23:24;;;;;;;45.40;26.20;;;;;;;-147.86;100.00;46149.22;105619;1257;72644;-46
2023/12/02 04:25:54;;;;;;;47.90;25.40;;;;;;;-147.86;100.00;46148.83;105635;1256;60975;-45
2023/12/02 04:28:30;;;;;;;49.20;27.00;;;;;;;-147.86;100.00;46147.66;105560;1254;60910;-47
2023/12/02 04:30:57;;;;;;;53.30;27.00;;;;;;;-147.86;100.00;46147.27;105501;1255;73793;-46
2023/12/02 04:33:24;;;;;;;47.10;25.50;;;;;;;-147.86;100.00;46147.26;105380;1254;65308;-44
2023/12/02 04:35:54;;;;;;;45.20;26.20;;;;;;;-147.86;100.00;46143.74;105607;1254;72768;-46
2023/12/02 04:38:26;;;;;;;45.70;26.30;;;;;;;-147.86;100.00;46149.61;105629;1257;60997;-45
2023/12/02 04:40:54;;;;;;;42.40;25.60;;;;;;;-147.86;100.00;46148.44;105712;1254;60450;-45
2023/12/02 04:43:21;;;;;;;41.20;24.60;;;;;;;-147.86;100.00;46148.44;105638;1255;73866;-46
2023/12/02 04:45:48;;;;;;;44.00;24.30;;;;;;;-147.86;100.00;46147.66;105616;1254;65292;-45
2023/12/02 04:48:17;;;;;;;39.00;22.70;;;;;;;-147.86;100.00;46149.22;105672;1254;72439;-45
2023/12/02 04:50:44;;;;;;;42.20;23.80;;;;;;;-147.86;100.00;46146.48;105607;1259;61004;-44
2023/12/02 04:53:13;;;;;;;39.60;24.80;;;;;;;-147.86;100.00;46147.27;105684;1254;60415;-44
2023/12/02 04:55:40;;;;;;;46.30;24.80;;;;;;;-147.86;100.00;46146.87;105648;1256;72812;-45
2023/12/02 04:58:07;;;;;;;42.40;24.90;;;;;;;-147.86;100.00;46144.91;105665;1259;64541;-44
2023/12/02 05:00:43;;;;;;;42.60;25.70;;;;;;;-147.86;100.00;46145.70;105609;1255;72643;-44
2023/12/02 05:03:10;;;;;;;42.20;25.20;;;;;;;-147.86;100.00;46148.04;105621;1257;60462;-44
2023/12/02 05:05:39;;;;;;;41.20;25.30;;;;;;;-147.86;100.00;46145.70;105646;1259;60431;-44
2023/12/02 05:08:17;;;;;;;47.10;26.30;;;;;;;-147.86;100.00;46148.83;105625;1256;73876;-45
2023/12/02 05:10:44;;;;;;;46.10;25.60;;;;;;;-147.86;100.00;46145.30;105625;1259;65390;-44
2023/12/02 05:13:11;;;;;;;42.90;25.40;;;;;;;-147.86;100.00;46146.87;105652;1254;72662;-44
2023/12/02 05:15:39;;;;;;;40.90;24.30;;;;;;;-147.86;100.00;46146.87;105719;1259;61279;-44
2023/12/02 05:18:10;;;;;;;36.90;23.20;;;;;;;-147.86;100.00;46145.70;105657;1257;60466;-44
2023/12/02 05:20:37;;;;;;;41.90;24.30;;;;;;;-147.86;100.00;46147.27;105659;1258;73864;-45
2023/12/02 05:23:08;;;;;;;48.00;26.50;;;;;;;-147.86;100.00;46147.66;105645;1254;64697;-45
2023/12/02 05:25:35;;;;;;;42.50;24.80;;;;;;;-147.86;100.00;46146.87;105737;1254;72650;-44
2023/12/02 05:28:12;;;;;;;41.00;24.00;;;;;;;-147.86;100.00;46145.70;105640;1254;61264;-45
2023/12/02 05:30:45;;;;;;;46.50;25.80;;;;;;;-147.86;100.00;46147.26;105616;1257;60485;-44
2023/12/02 05:33:12;;;;;;;49.70;25.10;;;;;;;-147.86;100.00;46144.13;105641;1257;73804;-44
2023/12/02 05:35:40;;;;;;;43.00;25.00;;;;;;;-147.86;100.00;46146.87;105651;1257;65709;-44
2023/12/02 05:38:09;;;;;;;44.40;25.40;;;;;;;-147.86;100.00;46146.48;105706;1260;72408;-44
2023/12/02 05:40:36;;;;;;;44.30;26.00;;;;;;;-147.86;100.00;46142.95;105639;1259;61156;-44
2023/12/02 05:43:04;;;;;;;40.20;24.50;;;;;;;-147.86;100.00;46144.13;105690;1254;60414;-44
2023/12/02 05:45:33;;;;;;;44.70;25.00;;;;;;;-147.86;100.00;46146.87;105613;1254;73871;-44
2023/12/02 05:48:07;;;;;;;43.50;25.00;;;;;;;-147.86;100.00;46144.52;105661;1257;65454;-44
2023/12/02 05:50:35;;;;;;;41.80;24.60;;;;;;;-147.86;100.00;46142.17;105727;1255;72673;-44
2023/12/02 05:53:04;;;;;;;43.10;25.10;;;;;;;-147.86;100.00;46146.09;105685;1254;61103;-45
2023/12/02 05:55:33;;;;;;;43.70;25.40;;;;;;;-147.86;100.00;46144.13;105651;1255;60358;-44
2023/12/02 05:58:00;;;;;;;42.10;25.70;;;;;;;-147.86;100.00;46144.91;105662;1255;72784;-45
2023/12/02 06:00:27;;;;;;;41.00;25.90;;;;;;;-147.86;100.00;46144.52;105609;1258;65255;-45
2023/12/02 06:02:54;;;;;;;44.50;25.10;;;;;;;-147.86;100.00;46146.09;105626;1254;72567;-44
2023/12/02 06:05:21;;;;;;;41.50;25.30;;;;;;;-147.86;100.00;46146.48;105674;1260;60459;-44
2023/12/02 06:07:49;;;;;;;44.80;26.10;;;;;;;-147.86;100.00;46143.34;105645;1254;60422;-45
2023/12/02 06:10:16;;;;;;;40.00;23.50;;;;;;;-147.86;100.00;46146.09;105651;1257;73948;-45
2023/12/02 06:12:43;;;;;;;40.40;23.70;;;;;;;-147.86;100.00;46146.09;105623;1260;65246;-45
2023/12/02 06:15:11;;;;;;;39.10;23.20;;;;;;;-147.86;100.00;46143.34;105650;1254;72867;-44
2023/12/02 06:17:41;;;;;;;37.00;22.60;;;;;;;-147.86;100.00;46141.77;105643;1260;60297;-44
2023/12/02 06:20:11;;;;;;;38.30;23.30;;;;;;;-147.86;100.00;46145.70;105641;1254;60428;-44
2023/12/02 06:22:44;;;;;;;39.90;23.60;;;;;;;-147.86;100.00;46143.34;105628;1257;73545;-45
2023/12/02 06:25:13;;;;;;;39.30;23.90;;;;;;;-147.86;100.00;46142.56;105656;1254;65494;-44
2023/12/02 06:27:41;;;;;;;37.80;21.90;;;;;;;-147.86;100.00;46143.74;105678;1254;72835;-45
2023/12/02 06:30:16;;;;;;;39.90;23.30;;;;;;;-147.86;100.00;46145.30;105665;1254;60997;-44
2023/12/02 06:32:43;;;;;;;41.50;22.90;;;;;;;-147.86;100.00;46139.82;105690;1254;60488;-44
2023/12/02 06:35:10;;;;;;;38.40;22.60;;;;;;;-147.86;100.00;46144.13;105706;1254;73766;-44
2023/12/02 06:37:48;;;;;;;42.10;23.90;;;;;;;-147.86;100.00;46142.56;105628;1259;65360;-44
2023/12/02 06:40:19;;;;;;;37.00;23.00;;;;;;;-147.86;100.00;46139.43;105660;1254;72649;-44
2023/12/02 06:42:46;;;;;;;43.30;23.80;;;;;;;-147.86;100.00;46143.74;105671;1260;61324;-44
2023/12/02 06:45:21;;;;;;;46.10;23.50;;;;;;;-147.86;100.00;46142.95;105693;1254;60469;-44
2023/12/02 06:47:54;;;;;;;39.50;23.20;;;;;;;-147.86;100.00;46140.60;105631;1257;73787;-45
2023/12/02 06:50:23;;;;;;;42.10;23.20;;;;;;;-147.86;100.00;46143.74;105709;1259;65259;-44
2023/12/02 06:52:51;;;;;;;38.80;23.70;;;;;;;-147.86;100.00;46142.17;105647;1254;72664;-44
2023/12/02 06:55:22;;;;;;;44.70;26.00;;;;;;;-147.86;100.00;46144.13;105607;1258;60871;-45
2023/12/02 06:57:55;;;;;;;41.30;24.30;;;;;;;-147.86;100.00;46144.91;105657;1254;60300;-44
2023/12/02 07:00:25;;;;;;;46.10;26.60;;;;;;;-147.86;100.00;46144.13;105695;1259;73820;-44
2023/12/02 07:02:52;;;;;;;41.80;25.70;;;;;;;-147.86;100.00;46143.73;105659;1259;66318;-44
2023/12/02 07:05:19;;;;;;;47.50;27.90;;;;;;;-147.86;100.00;46141.38;105651;1255;72720;-45
2023/12/02 07:07:48;;;;;;;50.70;28.40;;;;;;;-147.86;100.00;46143.34;105647;1254;61118;-45
2023/12/02 07:10:16;;;;;;;48.10;27.70;;;;;;;-147.86;100.00;46142.17;105690;1254;60405;-44
2023/12/02 07:12:45;;;;;;;47.30;25.10;;;;;;;-147.86;100.00;46140.99;105649;1259;74358;-44
2023/12/02 07:15:13;;;;;;;48.00;25.50;;;;;;;-147.86;100.00;46141.38;105643;1258;65476;-45
2023/12/02 07:17:43;;;;;;;40.90;25.20;;;;;;;-147.86;100.00;46142.96;105657;1254;72681;-45
2023/12/02 07:20:14;;;;;;;46.90;25.90;;;;;;;-147.86;100.00;46140.61;105643;1257;60652;-44
2023/12/02 07:22:44;;;;;;;47.30;26.90;;;;;;;-147.86;100.00;46142.56;105695;1260;60342;-44
2023/12/02 07:25:11;;;;;;;46.30;25.80;;;;;;;-147.86;100.00;46140.21;105588;1254;73652;-45
2023/12/02 07:27:38;;;;;;;49.40;26.80;;;;;;;-147.86;100.00;46141.77;105637;1259;65369;-45
2023/12/02 07:30:06;;;;;;;48.70;26.50;;;;;;;-147.86;100.00;46140.99;105598;1259;72561;-45
2023/12/02 07:32:37;;;;;;;47.90;26.90;;;;;;;-147.86;100.00;46142.56;105656;1258;61030;-44
2023/12/02 07:35:06;;;;;;;51.30;27.00;;;;;;;-147.86;100.00;46141.78;105663;1258;60843;-44
2023/12/02 07:37:34;;;;;;;43.20;24.50;;;;;;;-147.86;100.00;46141.38;105650;1254;72411;-45
2023/12/02 07:40:01;;;;;;;49.30;27.60;;;;;;;-147.86;100.00;46139.82;105740;1260;65528;-44
2023/12/02 07:42:28;;;;;;;47.60;26.10;;;;;;;-147.86;100.00;46140.99;105636;1254;72566;-44
2023/12/02 07:44:55;;;;;;;49.70;27.60;;;;;;;-147.86;100.00;46140.99;105633;1259;61067;-44
2023/12/02 07:47:23;;;;;;;46.80;26.70;;;;;;;-147.86;100.00;46140.21;105651;1259;60303;-45
2023/12/02 07:49:50;;;;;;;48.00;27.70;;;;;;;-147.86;100.00;46141.78;105653;1257;73808;-44
2023/12/02 07:52:17;;;;;;;44.80;25.90;;;;;;;-147.86;100.00;46139.43;105672;1259;65516;-45
2023/12/02 07:54:44;;;;;;;48.00;26.40;;;;;;;-147.86;100.00;46139.04;105664;1255;72427;-44
2023/12/02 07:57:11;;;;;;;43.40;24.40;;;;;;;-147.86;100.00;46139.03;105635;1259;61002;-45
2023/12/02 07:59:38;;;;;;;40.90;25.00;;;;;;;-147.86;100.00;46140.60;105660;1255;60543;-45
2023/12/02 08:02:05;;;;;;;41.80;24.70;;;;;;;-147.86;100.00;46139.43;105662;1258;73843;-44
2023/12/02 08:04:35;;;;;;;45.00;24.90;;;;;;;-147.86;100.00;46140.21;105637;1254;64021;-45
2023/12/02 08:07:02;;;;;;;40.50;23.70;;;;;;;-147.86;100.00;46143.34;105664;1259;71290;-44
2023/12/02 08:09:32;;;;;;;44.70;24.30;;;;;;;-147.86;100.00;46140.60;105616;1259;60972;-44
2023/12/02 08:11:59;;;;;;;44.10;21.90;;;;;;;-147.86;100.00;46141.78;105667;1254;60497;-45
2023/12/02 08:14:28;;;;;;;40.00;22.90;;;;;;;-147.86;100.00;46139.43;105656;1259;73807;-44
2023/12/02 08:16:57;;;;;;;38.80;23.70;;;;;;;-147.86;100.00;46141.77;105675;1259;65483;-44
2023/12/02 08:19:24;;;;;;;40.70;21.50;;;;;;;-147.86;100.00;46142.96;105897;1253;72649;-44
2023/12/02 08:21:51;;;;;;;40.70;23.40;;;;;;;-147.86;100.00;46142.96;105898;1256;61123;-44
2023/12/02 08:24:20;;;;;;;41.60;23.90;;;;;;;-147.86;100.00;46144.91;105900;1254;60452;-45
2023/12/02 08:26:47;;;;;;;36.70;22.40;;;;;;;-147.86;100.00;46142.17;105849;1256;73684;-44
2023/12/02 08:29:14;;;;;;;36.50;21.50;;;;;;;-147.86;100.00;46142.95;105858;1256;65650;-44
2023/12/02 08:31:44;;;;;;;38.40;21.00;;;;;;;-147.86;100.00;46143.34;105901;1254;72743;-44
2023/12/02 08:34:11;;;;;;;34.20;20.50;;;;;;;-147.86;100.00;46144.52;105891;1254;60863;-44
2023/12/02 08:36:43;;;;;;;33.10;19.20;;;;;;;-147.86;100.00;46148.05;105916;1254;60456;-44
2023/12/02 08:39:10;;;;;;;32.50;19.80;;;;;;;-147.86;100.00;46146.87;105898;1254;73775;-44
2023/12/02 08:41:39;;;;;;;33.20;19.50;;;;;;;-147.86;100.00;46146.87;105918;1256;65455;-44
2023/12/02 08:44:09;;;;;;;28.30;18.80;;;;;;;-147.86;100.00;46145.30;105875;1254;72534;-45
2023/12/02 08:46:40;;;;;;;33.00;19.60;;;;;;;-147.86;100.00;46148.83;105954;1257;60501;-44
2023/12/02 08:49:07;;;;;;;28.00;17.80;;;;;;;-147.86;100.00;46147.66;105923;1252;60536;-44
2023/12/02 08:51:33;;;;;;;32.10;18.50;;;;;;;-147.86;100.00;46148.83;105937;1254;73792;-44
2023/12/02 08:54:10;;;;;;;32.80;18.80;;;;;;;-147.86;100.00;46149.22;105957;1256;63121;-44
2023/12/02 08:56:37;;;;;;;30.80;18.80;;;;;;;-147.86;100.00;46149.61;105907;1254;72639;-43
2023/12/02 08:59:03;;;;;;;27.80;17.50;;;;;;;-147.86;100.00;46151.96;105934;1256;61062;-44
2023/12/02 09:01:33;;;;;;;29.70;17.80;;;;;;;-147.86;100.00;46152.36;105920;1253;60472;-44
2023/12/02 09:04:00;;;;;;;29.40;17.80;;;;;;;-147.86;100.00;46154.71;105958;1254;73890;-44
2023/12/02 09:06:33;;;;;;;28.10;17.50;;;;;;;-147.86;100.00;46155.10;105878;1254;65266;-43
2023/12/02 09:09:00;;;;;;;27.90;16.80;;;;;;;-147.86;100.00;46155.49;105958;1257;72609;-44
2023/12/02 09:11:29;;;;;;;30.90;18.10;;;;;;;-147.86;100.00;46158.24;105875;1256;61193;-44
2023/12/02 09:13:56;;;;;;;29.30;17.50;;;;;;;-147.86;100.00;46159.02;105947;1254;60418;-44
2023/12/02 09:16:24;;;;;;;30.40;18.00;;;;;;;-147.86;100.00;46161.37;105860;1256;73678;-44
2023/12/02 09:19:02;;;;;;;30.30;17.80;;;;;;;-147.86;100.00;46162.94;105701;1258;65151;-44
2023/12/02 09:21:38;;;;;;;33.10;18.40;;;;;;;-147.86;100.00;46165.29;105867;1254;72672;-45
2023/12/02 09:24:58;;;;;;;27.80;17.70;;;;;;;-147.86;100.00;46167.64;105892;1256;60342;-44
2023/12/02 09:28:06;;;;;;;29.00;18.30;;;;;;;-147.86;100.00;46173.52;105607;1254;60566;-44
2023/12/02 09:30:42;;;;;;;22.10;12.50;;;;;;;-147.86;100.00;46176.65;105949;1253;73990;-44
2023/12/02 09:33:11;;;;;;;28.40;17.80;;;;;;;-147.86;100.00;46177.83;105789;1257;65573;-44
2023/12/02 09:35:38;;;;;;;27.30;17.20;;;;;;;-147.86;100.00;46176.65;105663;1254;343839;-44
2023/12/02 09:40:21;;;;;;;33.10;18.90;;;;;;;-147.86;100.00;46184.10;102490;1293;616238;-43
2023/12/02 09:43:24;;;;;;;32.70;18.60;;;;;;;-147.86;100.00;46203.30;105069;1268;61021;-45
2023/12/02 09:45:59;;;;;;;27.70;17.10;;;;;;;-147.86;100.00;46203.70;105051;1264;60226;-43
2023/12/02 09:48:36;;;;;;;35.40;18.80;;;;;;;-147.86;100.00;46203.30;105093;1269;72055;-43
2023/12/02 09:51:20;;;;;;;33.30;18.60;;;;;;;-147.86;100.00;46203.30;105159;1266;65476;-43
2023/12/02 09:54:10;;;;;;;34.90;19.50;;;;;;;-147.86;100.00;46202.91;105034;1266;230932;-43
2023/12/02 09:56:42;;;;;;;34.50;18.90;;;;;;;-147.86;100.00;46205.26;105257;1265;60988;-45
2023/12/02 09:59:13;;;;;;;33.50;18.30;;;;;;;-147.86;100.00;46206.04;105260;1265;59984;-44
2023/12/02 10:01:47;;;;;;;31.30;18.20;;;;;;;-147.86;100.00;46204.87;105334;1263;72249;-43
2023/12/02 10:04:30;;;;;;;31.50;18.30;;;;;;;-147.86;100.00;46208.39;105219;1265;65519;-44
2023/12/02 10:07:03;;;;;;;34.40;18.60;;;;;;;-147.86;100.00;46211.92;105707;1253;71642;-43
2023/12/02 10:10:03;;;;;;;33.20;19.40;;;;;;;-147.86;100.00;46207.61;105995;1254;60080;-43
2023/12/02 10:12:43;;;;;;;34.60;19.80;;;;;;;-147.86;100.00;46214.27;106000;1253;60355;-43
2023/12/02 10:15:21;;;;;;;39.30;19.70;;;;;;;-147.86;100.00;46216.23;105982;1250;72265;-43
2023/12/02 10:18:21;;;;;;;33.50;19.00;;;;;;;-147.86;100.00;46219.37;105940;1254;65269;-43
2023/12/02 10:20:54;;;;;;;29.60;18.10;;;;;;;-147.86;100.00;46220.54;105992;1253;72448;-44
2023/12/02 10:23:28;;;;;;;31.10;17.80;;;;;;;-147.86;100.00;46219.76;105998;1250;60896;-44
2023/12/02 10:26:08;;;;;;;32.60;18.00;;;;;;;-147.86;100.00;46219.76;106075;1252;60979;-44
2023/12/02 10:28:48;;;;;;;31.40;18.70;;;;;;;-147.86;100.00;46224.85;105931;1253;73041;-44
2023/12/02 10:31:36;;;;;;;30.30;19.30;;;;;;;-147.86;100.00;46227.60;106001;1254;65722;-44
2023/12/02 10:34:03;;;;;;;29.50;17.90;;;;;;;-147.86;100.00;46227.20;105876;1253;73117;-44
2023/12/02 10:36:59;;;;;;;34.70;19.00;;;;;;;-147.86;100.00;46227.21;105880;1255;61417;-44
2023/12/02 10:39:39;;;;;;;25.10;16.70;;;;;;;-147.86;100.00;46230.73;105901;1254;59538;-43
2023/12/02 10:42:07;;;;;;;26.30;15.90;;;;;;;-147.86;100.00;46231.51;105880;1255;72598;-44
2023/12/02 10:44:35;;;;;;;23.70;15.80;;;;;;;-147.86;100.00;46232.69;105753;1258;65465;-44
2023/12/02 10:47:03;;;;;;;27.90;16.60;;;;;;;-147.86;100.00;46237.39;105713;1253;72475;-45
2023/12/02 10:49:35;;;;;;;25.70;16.40;;;;;;;-147.86;100.00;46233.87;105907;1254;59628;-45
2023/12/02 10:52:10;;;;;;;31.80;18.80;;;;;;;-147.86;100.00;46237.39;105863;1253;60120;-44
2023/12/02 10:54:41;;;;;;;26.50;14.80;;;;;;;-147.86;100.00;46235.04;105587;1253;71619;-45
2023/12/02 10:57:12;;;;;;;23.70;14.30;;;;;;;-147.86;100.00;46234.65;105578;1255;65540;-44
2023/12/02 10:59:59;;;;;;;22.60;14.60;;;;;;;-147.86;100.00;46238.57;105816;1253;72497;-44
2023/12/02 11:02:37;;;;;;;22.50;14.50;;;;;;;-147.86;100.00;46237.79;105921;1257;61082;-44